createdAt,value
2022-09-22T00:01:21.826Z,100380.75
2022-09-22T00:03:52.291Z,100382.50
2022-09-22T00:06:22.278Z,100377.28
2022-09-22T00:08:52.414Z,100381.62
2022-09-22T00:11:28.866Z,100377.28
2022-09-22T00:14:01.742Z,100372.94
2022-09-22T00:16:37.423Z,100372.06
2022-09-22T00:19:06.907Z,100366.81
2022-09-22T00:21:34.339Z,100365.97
2022-09-22T00:24:03.034Z,100365.09
2022-09-22T00:26:31.253Z,100366.81
2022-09-22T00:28:58.613Z,100373.81
2022-09-22T00:31:26.027Z,100370.31
2022-09-22T00:33:54.518Z,100366.84
2022-09-22T00:36:25.609Z,100359.88
2022-09-22T00:38:54.042Z,100360.75
2022-09-22T00:41:27.623Z,100361.59
2022-09-22T00:44:29.914Z,100368.59
2022-09-22T00:47:08.506Z,100363.38
2022-09-22T00:49:44.790Z,100365.97
2022-09-22T00:52:15.942Z,100363.38
2022-09-22T00:54:43.344Z,100355.50
2022-09-22T00:57:14.519Z,100353.81
2022-09-22T00:59:44.103Z,100351.19
2022-09-22T01:02:11.513Z,100351.16
2022-09-22T01:04:39.290Z,100357.28
2022-09-22T01:07:07.168Z,100350.31
2022-09-22T01:09:34.803Z,100352.03
2022-09-22T01:12:03.012Z,100348.59
2022-09-22T01:14:38.907Z,100345.97
2022-09-22T01:17:23.125Z,100339.00
2022-09-22T01:20:03.984Z,100339.88
2022-09-22T01:23:08.593Z,100338.13
2022-09-22T01:26:00.426Z,100343.38
2022-09-22T01:28:39.650Z,100339.88
2022-09-22T01:31:19.375Z,100339.00
2022-09-22T01:33:50.834Z,100334.66
2022-09-22T01:36:25.833Z,100336.41
2022-09-22T01:39:04.926Z,100341.59
2022-09-22T01:41:58.257Z,100352.94
2022-09-22T01:44:32.895Z,100345.09
2022-09-22T01:47:10.928Z,100352.06
2022-09-22T01:49:44.346Z,100358.13
2022-09-22T01:52:16.710Z,100355.53
2022-09-22T01:54:47.280Z,100345.94
2022-09-22T01:57:21.891Z,100348.56
2022-09-22T01:59:55.998Z,100347.69
2022-09-22T02:02:39.619Z,100346.81
2022-09-22T02:05:12.398Z,100345.94
2022-09-22T02:07:40.249Z,100345.94
2022-09-22T02:10:10.467Z,100340.72
2022-09-22T02:12:38.195Z,100340.72
2022-09-22T02:15:26.886Z,100342.47
2022-09-22T02:17:57.130Z,100339.00
2022-09-22T02:20:25.772Z,100345.09
2022-09-22T02:22:54.148Z,100341.59
2022-09-22T02:25:23.732Z,100345.94
2022-09-22T02:27:53.519Z,100337.25
2022-09-22T02:30:22.156Z,100345.06
2022-09-22T02:32:51.307Z,100335.53
2022-09-22T02:35:18.709Z,100345.06
2022-09-22T02:37:51.136Z,100343.34
2022-09-22T02:40:32.691Z,100344.22
2022-09-22T02:43:09.808Z,100341.59
2022-09-22T02:45:45.559Z,100346.81
2022-09-22T02:48:25.098Z,100336.41
2022-09-22T02:50:54.193Z,100345.97
2022-09-22T02:53:21.485Z,100337.25
2022-09-22T02:55:49.258Z,100344.19
2022-09-22T02:58:17.280Z,100339.00
2022-09-22T03:00:45.375Z,100334.66
2022-09-22T03:03:13.074Z,100337.25
2022-09-22T03:05:40.655Z,100336.38
2022-09-22T03:08:08.131Z,100329.44
2022-09-22T03:10:35.446Z,100328.56
2022-09-22T03:13:16.065Z,100334.63
2022-09-22T03:15:46.635Z,100332.03
2022-09-22T03:18:14.671Z,100332.91
2022-09-22T03:20:41.959Z,100339.84
2022-09-22T03:23:09.491Z,100343.31
2022-09-22T03:25:37.048Z,100333.72
2022-09-22T03:28:04.412Z,100332.84
2022-09-22T03:30:31.797Z,100336.31
2022-09-22T03:32:59.416Z,100329.38
2022-09-22T03:35:26.706Z,100327.63
2022-09-22T03:37:53.997Z,100328.47
2022-09-22T03:40:22.600Z,100331.13
2022-09-22T03:42:49.951Z,100326.78
2022-09-22T03:45:17.306Z,100324.16
2022-09-22T03:47:44.881Z,100322.41
2022-09-22T03:50:13.615Z,100319.81
2022-09-22T03:52:43.015Z,100327.63
2022-09-22T03:55:11.136Z,100330.22
2022-09-22T03:57:39.138Z,100325.88
2022-09-22T04:00:07.554Z,100324.13
2022-09-22T04:02:39.285Z,100322.37
2022-09-22T04:05:07.404Z,100322.37
2022-09-22T04:07:35.247Z,100320.69
2022-09-22T04:10:03.135Z,100318.06
2022-09-22T04:12:30.690Z,100325.88
2022-09-22T04:14:58.017Z,100319.78
2022-09-22T04:17:25.318Z,100327.63
2022-09-22T04:19:53.930Z,100317.16
2022-09-22T04:22:21.224Z,100332.75
2022-09-22T04:24:48.554Z,100328.44
2022-09-22T04:27:19.898Z,100326.72
2022-09-22T04:29:47.840Z,100328.47
2022-09-22T04:32:15.911Z,100333.66
2022-09-22T04:34:43.728Z,100332.81
2022-09-22T04:37:11.748Z,100335.41
2022-09-22T04:39:39.406Z,100336.25
2022-09-22T04:42:08.955Z,100349.28
2022-09-22T04:44:36.654Z,100344.06
2022-09-22T04:47:04.651Z,100343.19
2022-09-22T04:49:32.221Z,100343.22
2022-09-22T04:51:59.528Z,100345.81
2022-09-22T04:54:26.854Z,100338.87
2022-09-22T04:56:54.414Z,100339.75
2022-09-22T04:59:21.799Z,100338.03
2022-09-22T05:01:49.202Z,100334.56
2022-09-22T05:04:18.090Z,100335.44
2022-09-22T05:06:45.392Z,100334.56
2022-09-22T05:09:12.977Z,100332.81
2022-09-22T05:11:40.555Z,100338.03
2022-09-22T05:14:07.889Z,100335.47
2022-09-22T05:16:35.499Z,100337.19
2022-09-22T05:19:03.251Z,100337.22
2022-09-22T05:21:30.543Z,100336.34
2022-09-22T05:23:58.212Z,100336.34
2022-09-22T05:26:25.823Z,100330.25
2022-09-22T05:28:53.403Z,100335.50
2022-09-22T05:31:20.900Z,100335.50
2022-09-22T05:33:48.565Z,100335.50
2022-09-22T05:36:16.471Z,100341.59
2022-09-22T05:38:43.766Z,100341.63
2022-09-22T05:41:11.393Z,100334.66
2022-09-22T05:43:38.713Z,100338.13
2022-09-22T05:46:06.105Z,100345.09
2022-09-22T05:48:33.680Z,100342.44
2022-09-22T05:51:01.262Z,100338.91
2022-09-22T05:53:28.550Z,100341.50
2022-09-22T05:56:00.074Z,100345.78
2022-09-22T05:58:47.869Z,100341.34
2022-09-22T06:01:15.482Z,100338.63
2022-09-22T06:03:43.187Z,100335.03
2022-09-22T06:06:10.530Z,100346.31
2022-09-22T06:08:37.970Z,100346.22
2022-09-22T06:11:05.770Z,100343.38
2022-09-22T06:13:33.065Z,100350.31
2022-09-22T06:16:04.240Z,100347.47
2022-09-22T06:18:31.852Z,100352.69
2022-09-22T06:20:59.814Z,100343.56
2022-09-22T06:23:27.119Z,100350.56
2022-09-22T06:25:58.875Z,100349.41
2022-09-22T06:28:26.299Z,100346.59
2022-09-22T06:30:53.592Z,100356.25
2022-09-22T06:33:23.834Z,100352.72
2022-09-22T06:35:51.125Z,100350.91
2022-09-22T06:38:18.489Z,100347.97
2022-09-22T06:40:46.364Z,100347.88
2022-09-22T06:43:20.334Z,100363.44
2022-09-22T06:45:49.006Z,100353.53
2022-09-22T06:48:16.962Z,100350.09
2022-09-22T06:50:48.849Z,100352.37
2022-09-22T06:53:17.447Z,100352.37
2022-09-22T06:55:44.939Z,100353.84
2022-09-22T06:58:13.596Z,100348.56
2022-09-22T07:00:43.388Z,100355.59
2022-09-22T07:03:22.416Z,100354.22
2022-09-22T07:06:01.507Z,100346.94
2022-09-22T07:08:31.354Z,100351.19
2022-09-22T07:11:04.019Z,100357.31
2022-09-22T07:13:32.213Z,100353.81
2022-09-22T07:16:11.461Z,100350.03
2022-09-22T07:18:43.828Z,100351.06
2022-09-22T07:21:26.332Z,100349.28
2022-09-22T07:23:55.392Z,100343.50
2022-09-22T07:26:32.682Z,100349.28
2022-09-22T07:29:13.256Z,100348.56
2022-09-22T07:31:41.820Z,100355.84
2022-09-22T07:34:09.372Z,100351.25
2022-09-22T07:36:39.971Z,100350.19
2022-09-22T07:39:10.931Z,100347.22
2022-09-22T07:41:44.248Z,100352.94
2022-09-22T07:44:32.330Z,100357.19
2022-09-22T07:47:00.684Z,100357.69
2022-09-22T07:49:28.473Z,100355.06
2022-09-22T07:51:57.202Z,100365.84
2022-09-22T07:54:25.834Z,100353.03
2022-09-22T07:56:58.050Z,100357.94
2022-09-22T07:59:45.651Z,100357.91
2022-09-22T08:02:14.806Z,100358.16
2022-09-22T08:04:42.455Z,100350.19
2022-09-22T08:07:09.741Z,100351.00
2022-09-22T08:09:37.022Z,100354.31
2022-09-22T08:12:04.600Z,100353.59
2022-09-22T08:14:32.099Z,100349.88
2022-09-22T08:16:59.382Z,100351.59
2022-09-22T08:19:27.084Z,100359.16
2022-09-22T08:21:54.672Z,100359.44
2022-09-22T08:24:23.117Z,100368.25
2022-09-22T08:26:52.886Z,100368.19
2022-09-22T08:29:20.986Z,100357.78
2022-09-22T08:31:49.262Z,100357.78
2022-09-22T08:34:17.837Z,100356.78
2022-09-22T08:36:48.808Z,100354.03
2022-09-22T08:39:17.883Z,100352.91
2022-09-22T08:41:47.872Z,100355.94
2022-09-22T08:44:41.023Z,100358.63
2022-09-22T08:47:16.776Z,100351.19
2022-09-22T08:50:05.615Z,100350.56
2022-09-22T08:52:35.585Z,100347.47
2022-09-22T08:55:03.326Z,100347.31
2022-09-22T08:57:45.898Z,100344.84
2022-09-22T09:00:15.454Z,100340.62
2022-09-22T09:03:09.825Z,100343.62
2022-09-22T09:05:48.258Z,100340.31
2022-09-22T09:08:15.410Z,100340.97
2022-09-22T09:10:57.263Z,100343.06
2022-09-22T09:14:03.349Z,100343.13
2022-09-22T09:16:53.941Z,100335.84
2022-09-22T09:19:40.428Z,100340.81
2022-09-22T09:22:25.580Z,100338.25
2022-09-22T09:27:58.867Z,100340.50
2022-09-22T09:30:26.416Z,100334.94
2022-09-22T09:33:00.519Z,100335.31
2022-09-22T09:35:45.232Z,100342.88
2022-09-22T09:38:15.159Z,100333.66
2022-09-22T09:40:46.085Z,100338.69
2022-09-22T09:43:13.643Z,100340.94
2022-09-22T09:45:56.075Z,100342.50
2022-09-22T09:48:40.811Z,100338.09
2022-09-22T09:51:12.592Z,100340.91
2022-09-22T09:53:44.663Z,100339.78
2022-09-22T09:56:23.935Z,100339.69
2022-09-22T09:59:15.468Z,100345.28
2022-09-22T10:01:45.242Z,100337.41
2022-09-22T10:04:31.059Z,100333.75
2022-09-22T10:07:16.630Z,100333.69
2022-09-22T10:09:44.785Z,100324.34
2022-09-22T10:12:24.262Z,100323.47
2022-09-22T10:14:54.193Z,100333.03
2022-09-22T10:17:24.599Z,100336.53
2022-09-22T10:19:52.155Z,100331.34
2022-09-22T10:22:28.711Z,100336.84
2022-09-22T10:25:01.303Z,100333.97
2022-09-22T10:27:31.591Z,100334.34
2022-09-22T10:30:11.387Z,100333.16
2022-09-22T10:32:39.664Z,100333.72
2022-09-22T10:35:28.660Z,100332.59
2022-09-22T10:38:02.908Z,100327.91
2022-09-22T10:40:31.397Z,100331.31
2022-09-22T10:42:59.520Z,100324.81
2022-09-22T10:46:17.115Z,100327.66
2022-09-22T10:48:49.289Z,100317.84
2022-09-22T10:51:33.062Z,100324.81
2022-09-22T10:54:41.821Z,100302.53
2022-09-22T10:57:34.426Z,100309.97
2022-09-22T11:00:14.135Z,100310.22
2022-09-22T11:03:19.203Z,100302.63
2022-09-22T11:06:42.876Z,100296.03
2022-09-22T11:09:50.347Z,100288.84
2022-09-22T11:12:29.943Z,100291.81
2022-09-22T11:15:19.101Z,100288.88
2022-09-22T11:17:54.319Z,100287.41
2022-09-22T11:20:39.843Z,100289.59
2022-09-22T11:23:57.048Z,100288.88
2022-09-22T11:26:43.028Z,100279.78
2022-09-22T11:29:28.547Z,100276.22
2022-09-22T11:32:04.115Z,100267.69
2022-09-22T11:34:56.348Z,100273.66
2022-09-22T11:37:32.860Z,100264.03
2022-09-22T11:40:20.898Z,100265.53
2022-09-22T11:43:03.885Z,100258.41
2022-09-22T11:45:58.869Z,100250.28
2022-09-22T11:48:44.764Z,100239.22
2022-09-22T11:51:27.542Z,100241.63
2022-09-22T11:53:58.312Z,100249.56
2022-09-22T11:56:33.319Z,100235.38
2022-09-22T11:59:06.495Z,100243.34
2022-09-22T12:01:38.186Z,100238.84
2022-09-22T12:04:35.433Z,100238.34
2022-09-22T12:07:03.289Z,100236.22
2022-09-22T12:09:37.306Z,100231.38
2022-09-22T12:12:06.267Z,100230.37
2022-09-22T12:14:35.448Z,100224.72
2022-09-22T12:17:11.656Z,100227.81
2022-09-22T12:20:05.781Z,100231.50
2022-09-22T12:22:49.307Z,100232.50
2022-09-22T12:25:53.980Z,100224.88
2022-09-22T12:28:25.937Z,100225.31
2022-09-22T12:31:06.778Z,100232.63
2022-09-22T12:33:54.311Z,100233.69
2022-09-22T12:36:38.943Z,100238.16
2022-09-22T12:39:31.040Z,100239.88
2022-09-22T12:42:03.909Z,100232.59
2022-09-22T12:44:46.279Z,100236.59
2022-09-22T12:47:25.296Z,100233.50
2022-09-22T12:50:00.040Z,100231.16
2022-09-22T12:52:47.941Z,100229.53
2022-09-22T12:55:28.549Z,100227.28
2022-09-22T12:58:03.387Z,100225.06
2022-09-22T13:00:40.684Z,100223.41
2022-09-22T13:03:26.395Z,100227.63
2022-09-22T13:06:23.049Z,100223.53
2022-09-22T13:08:53.676Z,100220.47
2022-09-22T13:11:59.608Z,100220.63
2022-09-22T13:15:04.834Z,100217.47
2022-09-22T13:17:49.385Z,100218.12
2022-09-22T13:20:32.898Z,100224.88
2022-09-22T13:23:12.033Z,100215.94
2022-09-22T13:25:41.033Z,100211.31
2022-09-22T13:28:08.194Z,100216.78
2022-09-22T13:30:36.402Z,100213.72
2022-09-22T13:33:04.081Z,100217.75
2022-09-22T13:35:37.530Z,100203.25
2022-09-22T13:38:05.382Z,100203.84
2022-09-22T13:40:34.799Z,100205.53
2022-09-22T13:43:06.654Z,100205.81
2022-09-22T13:45:35.407Z,100201.94
2022-09-22T13:48:08.779Z,100196.44
2022-09-22T13:51:01.467Z,100200.25
2022-09-22T13:53:28.637Z,100195.34
2022-09-22T13:55:57.712Z,100199.87
2022-09-22T13:58:35.220Z,100194.62
2022-09-22T14:01:19.839Z,100197.25
2022-09-22T14:03:48.865Z,100188.50
2022-09-22T14:06:18.654Z,100191.59
2022-09-22T14:08:47.928Z,100186.75
2022-09-22T14:11:18.257Z,100176.88
2022-09-22T14:13:54.881Z,100184.06
2022-09-22T14:16:48.353Z,100179.91
2022-09-22T14:19:23.295Z,100184.34
2022-09-22T14:21:58.211Z,100183.41
2022-09-22T14:24:26.691Z,100179.28
2022-09-22T14:27:01.615Z,100179.87
2022-09-22T14:29:33.307Z,100184.25
2022-09-22T14:32:18.213Z,100179.44
2022-09-22T14:34:50.796Z,100182.13
2022-09-22T14:37:27.910Z,100173.66
2022-09-22T14:39:57.938Z,100176.00
2022-09-22T14:42:29.157Z,100169.22
2022-09-22T14:45:08.511Z,100171.50
2022-09-22T14:47:40.388Z,100168.72
2022-09-22T14:50:19.950Z,100166.81
2022-09-22T14:53:01.727Z,100172.25
2022-09-22T14:55:37.621Z,100170.66
2022-09-22T14:58:17.463Z,100174.94
2022-09-22T15:01:16.959Z,100165.28
2022-09-22T15:03:54.356Z,100167.06
2022-09-22T15:06:21.978Z,100171.31
2022-09-22T15:08:52.085Z,100163.31
2022-09-22T15:11:19.471Z,100165.59
2022-09-22T15:13:50.785Z,100156.06
2022-09-22T15:16:38.635Z,100170.56
2022-09-22T15:19:10.937Z,100183.75
2022-09-22T15:21:40.583Z,100191.47
2022-09-22T15:24:10.862Z,100201.94
2022-09-22T15:26:39.456Z,100211.66
2022-09-22T15:29:06.785Z,100205.75
2022-09-22T15:31:36.863Z,100197.22
2022-09-22T15:34:04.455Z,100207.72
2022-09-22T15:36:32.891Z,100205.38
2022-09-22T15:39:06.808Z,100194.44
2022-09-22T15:41:34.861Z,100199.50
2022-09-22T15:44:03.067Z,100200.34
2022-09-22T15:46:36.270Z,100197.53
2022-09-22T15:49:12.327Z,100197.72
2022-09-22T15:51:39.604Z,100194.38
2022-09-22T15:54:15.103Z,100197.94
2022-09-22T15:56:43.302Z,100201.59
2022-09-22T15:59:16.909Z,100199.69
2022-09-22T16:02:10.288Z,100204.50
2022-09-22T16:04:37.908Z,100202.09
2022-09-22T16:07:08.338Z,100200.19
2022-09-22T16:09:35.722Z,100199.97
2022-09-22T16:12:03.332Z,100201.72
2022-09-22T16:14:30.624Z,100205.38
2022-09-22T16:16:58.183Z,100197.44
2022-09-22T16:19:37.782Z,100214.28
2022-09-22T16:22:12.388Z,100210.25
2022-09-22T16:24:39.968Z,100204.00
2022-09-22T16:27:07.416Z,100215.34
2022-09-22T16:29:37.324Z,100212.94
2022-09-22T16:32:04.908Z,100213.19
2022-09-22T16:34:34.557Z,100211.53
2022-09-22T16:37:02.288Z,100218.62
2022-09-22T16:39:29.865Z,100222.22
2022-09-22T16:41:57.216Z,100224.91
2022-09-22T16:44:24.517Z,100225.91
2022-09-22T16:46:52.103Z,100225.34
2022-09-22T16:49:20.912Z,100224.69
2022-09-22T16:51:54.135Z,100226.41
2022-09-22T16:54:21.734Z,100218.69
2022-09-22T16:56:50.566Z,100229.28
2022-09-22T16:59:19.715Z,100234.72
2022-09-22T17:01:47.415Z,100232.16
2022-09-22T17:04:16.665Z,100243.47
2022-09-22T17:06:44.468Z,100239.97
2022-09-22T17:09:12.992Z,100242.66
2022-09-22T17:11:42.655Z,100246.47
2022-09-22T17:14:17.739Z,100251.66
2022-09-22T17:16:51.821Z,100253.59
2022-09-22T17:19:21.856Z,100255.44
2022-09-22T17:21:51.901Z,100258.13
2022-09-22T17:24:19.748Z,100254.81
2022-09-22T17:26:49.934Z,100258.41
2022-09-22T17:29:25.487Z,100258.59
2022-09-22T17:31:57.711Z,100266.56
2022-09-22T17:34:29.634Z,100268.28
2022-09-22T17:36:57.389Z,100272.81
2022-09-22T17:39:26.732Z,100259.78
2022-09-22T17:41:54.992Z,100271.19
2022-09-22T17:44:22.755Z,100271.37
2022-09-22T17:47:10.896Z,100279.25
2022-09-22T17:49:58.444Z,100281.88
2022-09-22T17:52:29.656Z,100277.59
2022-09-22T17:55:07.383Z,100284.75
2022-09-22T17:57:36.134Z,100284.81
2022-09-22T18:00:06.316Z,100286.62
2022-09-22T18:02:37.392Z,100287.47
2022-09-22T18:05:12.718Z,100283.97
2022-09-22T18:07:40.812Z,100293.59
2022-09-22T18:10:10.195Z,100291.84
2022-09-22T18:12:37.926Z,100294.56
2022-09-22T18:15:06.234Z,100293.75
2022-09-22T18:17:41.931Z,100291.22
2022-09-22T18:20:11.757Z,100297.41
2022-09-22T18:22:40.016Z,100298.25
2022-09-22T18:25:09.012Z,100300.78
2022-09-22T18:27:37.260Z,100295.69
2022-09-22T18:30:06.178Z,100301.84
2022-09-22T18:32:34.783Z,100306.25
2022-09-22T18:35:02.539Z,100302.75
2022-09-22T18:37:30.120Z,100315.00
2022-09-22T18:39:57.513Z,100315.06
2022-09-22T18:42:25.263Z,100311.59
2022-09-22T18:45:25.132Z,100307.19
2022-09-22T18:47:52.709Z,100314.16
2022-09-22T18:50:20.396Z,100319.41
2022-09-22T18:52:47.780Z,100322.06
2022-09-22T18:55:18.218Z,100322.91
2022-09-22T18:57:47.750Z,100323.81
2022-09-22T19:00:15.968Z,100315.91
2022-09-22T19:02:43.560Z,100314.13
2022-09-22T19:05:10.887Z,100316.78
2022-09-22T19:07:43.338Z,100310.66
2022-09-22T19:10:13.357Z,100308.91
2022-09-22T19:12:41.018Z,100307.16
2022-09-22T19:15:16.554Z,100306.25
2022-09-22T19:17:46.395Z,100308.88
2022-09-22T19:20:20.836Z,100315.06
2022-09-22T19:22:50.362Z,100303.66
2022-09-22T19:25:21.452Z,100301.91
2022-09-22T19:27:50.698Z,100310.72
2022-09-22T19:30:22.376Z,100302.91
2022-09-22T19:32:51.426Z,100304.69
2022-09-22T19:35:19.512Z,100301.34
2022-09-22T19:37:47.193Z,100303.03
2022-09-22T19:40:18.534Z,100301.28
2022-09-22T19:42:47.193Z,100302.03
2022-09-22T19:45:15.487Z,100302.06
2022-09-22T19:47:42.806Z,100298.53
2022-09-22T19:50:13.346Z,100301.19
2022-09-22T19:52:40.946Z,100309.06
2022-09-22T19:55:11.365Z,100300.34
2022-09-22T19:57:41.539Z,100302.97
2022-09-22T20:00:12.564Z,100308.16
2022-09-22T20:02:40.176Z,100297.69
2022-09-22T20:05:17.351Z,100308.22
2022-09-22T20:07:44.919Z,100312.53
2022-09-22T20:10:13.218Z,100313.38
2022-09-22T20:12:40.537Z,100312.59
2022-09-22T20:15:08.495Z,100316.97
2022-09-22T20:17:35.775Z,100313.44
2022-09-22T20:20:03.266Z,100314.31
2022-09-22T20:22:31.338Z,100317.84
2022-09-22T20:25:01.389Z,100323.16
2022-09-22T20:27:33.648Z,100324.00
2022-09-22T20:30:01.650Z,100318.78
2022-09-22T20:32:34.637Z,100321.41
2022-09-22T20:35:02.230Z,100321.41
2022-09-22T20:37:32.149Z,100326.62
2022-09-22T20:39:59.458Z,100321.41
2022-09-22T20:42:27.011Z,100326.66
2022-09-22T20:44:55.029Z,100329.25
2022-09-22T20:47:25.364Z,100330.12
2022-09-22T20:49:53.114Z,100322.28
2022-09-22T20:52:21.006Z,100323.12
2022-09-22T20:54:48.477Z,100317.03
2022-09-22T20:57:16.951Z,100322.34
2022-09-22T20:59:45.795Z,100324.09
2022-09-22T21:02:14.529Z,100324.94
2022-09-22T21:04:42.301Z,100325.88
2022-09-22T21:07:11.318Z,100326.72
2022-09-22T21:09:57.236Z,100326.75
2022-09-22T21:12:30.693Z,100321.53
2022-09-22T21:14:58.738Z,100324.16
2022-09-22T21:17:27.754Z,100334.63
2022-09-22T21:19:57.759Z,100332.91
2022-09-22T21:22:28.023Z,100330.28
2022-09-22T21:25:03.151Z,100327.66
2022-09-22T21:27:30.431Z,100328.53
2022-09-22T21:29:58.004Z,100327.66
2022-09-22T21:32:25.369Z,100332.03
2022-09-22T21:34:52.667Z,100336.38
2022-09-22T21:37:20.997Z,100333.78
2022-09-22T21:39:48.284Z,100334.63
2022-09-22T21:42:15.847Z,100335.50
2022-09-22T21:44:43.411Z,100331.16
2022-09-22T21:47:11.427Z,100331.16
2022-09-22T21:49:38.716Z,100322.50
2022-09-22T21:52:06.299Z,100328.56
2022-09-22T21:54:33.826Z,100325.94
2022-09-22T21:57:01.373Z,100331.19
2022-09-22T21:59:29.703Z,100325.97
2022-09-22T22:01:57.344Z,100334.66
2022-09-22T22:04:25.135Z,100332.91
2022-09-22T22:06:52.479Z,100333.78
2022-09-22T22:09:21.957Z,100328.53
2022-09-22T22:11:53.784Z,100319.88
2022-09-22T22:14:22.434Z,100322.47
2022-09-22T22:16:52.007Z,100318.13
2022-09-22T22:19:21.192Z,100322.47
2022-09-22T22:21:50.209Z,100326.84
2022-09-22T22:24:30.455Z,100324.22
2022-09-22T22:27:01.149Z,100316.38
2022-09-22T22:29:34.648Z,100325.06
2022-09-22T22:32:04.955Z,100326.81
2022-09-22T22:34:32.592Z,100319.88
2022-09-22T22:37:00.392Z,100314.66
2022-09-22T22:39:28.329Z,100319.81
2022-09-22T22:41:55.994Z,100317.22
2022-09-22T22:44:23.328Z,100314.56
2022-09-22T22:46:50.840Z,100309.41
2022-09-22T22:49:18.426Z,100315.50
2022-09-22T22:51:45.854Z,100307.63
2022-09-22T22:54:14.484Z,100310.25
2022-09-22T22:56:43.704Z,100307.66
2022-09-22T22:59:11.748Z,100305.94
2022-09-22T23:01:40.566Z,100311.09
2022-09-22T23:04:10.279Z,100303.25
2022-09-22T23:06:39.698Z,100304.97
2022-09-22T23:09:08.420Z,100305.91
2022-09-22T23:11:37.956Z,100296.28
2022-09-22T23:14:08.404Z,100293.66
2022-09-22T23:16:41.008Z,100298.81
2022-09-22T23:19:08.913Z,100298.88
2022-09-22T23:21:36.680Z,100305.75
2022-09-22T23:24:05.495Z,100304.03
2022-09-22T23:26:54.332Z,100304.91
2022-09-22T23:29:22.342Z,100301.37
2022-09-22T23:31:49.718Z,100301.34
2022-09-22T23:34:17.048Z,100301.31
2022-09-22T23:36:45.299Z,100297.03
2022-09-22T23:39:12.607Z,100296.12
2022-09-22T23:41:39.939Z,100292.59
2022-09-22T23:44:07.577Z,100293.50
2022-09-22T23:46:35.044Z,100283.91
2022-09-22T23:49:02.422Z,100298.56
2022-09-22T23:51:30.671Z,100300.38
2022-09-22T23:53:58.502Z,100302.13
2022-09-22T23:56:26.039Z,100302.97
2022-09-22T23:58:53.822Z,100300.38
